Disclaimer

Please do not use the information listed here in-flight or in-navigation, as they are not provided to us by the airports but are provided by volunteers, so they might be outdated.

Search


Regions


Airport information page

Radio informations:
LANGEN RADAR - 124.9 MHz
LANGEN INFO - 123.525 MHz
Automatic Terminal Information Service (ATIS) - 128.625 MHz
INFO - 120.375 MHz

Airport informations:
Latitude: 50° 42' 27.57" N
Longitude: 008° 04' 58.69" E
Elevation: 1966 feet - 599 meters
Operating hours: Remarks
Operating agency: Civil government, landing fees and diplomatic clearance may be required
Timezone: UTC+1(+2DT) - Last Sunday in March to last Sunday in October
Fuel: Jet A1, without icing nhibitor.

100/130 MIL Spec, low lead, aviation gasoline (BLUE)

Runway information:
04/22 - 1640 x 98 feet< - >500 x 30 meters
13/31 - 5315 x 98 feet< - >1620 x 30 meters
13L/31R - 1969 x 98 feet< - >600 x 30 meters

Recent METARs:
EDGS 191950Z 08018G30KT 9999 BKN010 M00/M02 Q1011
EDGS 191950Z 08018G30KT 9999 BKN010 M00/M02 Q1011
EDGS 191950Z 08018G30KT 9999 BKN010 M00/M02 Q1011

Airport on the map: